createdAt,value
2022-11-28T00:01:58.799Z,35.63
2022-11-28T00:08:23.151Z,35.88
2022-11-28T00:14:47.623Z,35.94
2022-11-28T00:21:12.010Z,35.73
2022-11-28T00:27:36.241Z,35.81
2022-11-28T00:34:00.417Z,35.86
2022-11-28T00:40:24.731Z,35.84
2022-11-28T00:46:48.975Z,35.85
2022-11-28T00:53:13.380Z,36.16
2022-11-28T00:59:37.665Z,35.96
2022-11-28T01:06:01.968Z,35.91
2022-11-28T01:12:26.175Z,36.06
2022-11-28T01:18:50.155Z,36.11
2022-11-28T01:25:14.421Z,36.24
2022-11-28T01:31:38.662Z,36.31
2022-11-28T01:38:02.925Z,36.48
2022-11-28T01:44:36.096Z,36.62
2022-11-28T01:51:00.083Z,36.41
2022-11-28T01:57:24.434Z,36.56
2022-11-28T02:03:51.707Z,36.70
2022-11-28T02:10:15.957Z,36.57
2022-11-28T02:16:49.238Z,36.82
2022-11-28T02:23:22.219Z,36.85
2022-11-28T02:30:04.996Z,36.89
2022-11-28T02:36:35.242Z,36.73
2022-11-28T02:42:59.623Z,36.88
2022-11-28T02:49:39.205Z,37.14
2022-11-28T02:56:03.519Z,37.44
2022-11-28T03:02:30.757Z,37.51
2022-11-28T03:08:58.064Z,37.62
2022-11-28T03:15:25.340Z,37.80
2022-11-28T03:21:50.088Z,37.97
2022-11-28T03:28:16.959Z,37.59
2022-11-28T03:34:41.606Z,37.90
2022-11-28T03:41:06.479Z,37.72
2022-11-28T03:47:33.686Z,38.24
2022-11-28T03:54:00.530Z,38.13
2022-11-28T04:00:27.559Z,38.33
2022-11-28T04:07:03.741Z,38.49
2022-11-28T04:13:37.544Z,38.30
2022-11-28T04:20:01.936Z,38.38
2022-11-28T04:26:26.500Z,38.45
2022-11-28T04:32:50.872Z,38.35
2022-11-28T04:39:15.212Z,38.46
2022-11-28T04:45:48.570Z,38.49
2022-11-28T04:52:19.112Z,38.31
2022-11-28T04:58:43.589Z,38.64
2022-11-28T05:05:03.593Z,38.47
2022-11-28T05:11:27.915Z,38.56
2022-11-28T05:17:52.307Z,38.58
2022-11-28T05:24:16.580Z,38.61
2022-11-28T05:30:40.925Z,38.77
2022-11-28T05:37:05.330Z,38.64
2022-11-28T05:43:29.756Z,38.70
2022-11-28T05:49:54.187Z,38.78
2022-11-28T05:56:18.527Z,39.10
2022-11-28T06:02:42.866Z,38.83
2022-11-28T06:09:07.296Z,38.79
2022-11-28T06:15:34.882Z,38.79
2022-11-28T06:22:04.644Z,38.59
2022-11-28T06:28:29.036Z,38.34
2022-11-28T06:34:53.338Z,38.30
2022-11-28T06:41:17.798Z,37.99
2022-11-28T06:47:42.166Z,37.66
2022-11-28T06:54:06.590Z,37.61
2022-11-28T07:00:30.850Z,36.93
2022-11-28T07:06:55.514Z,37.04
2022-11-28T07:13:19.956Z,36.58
2022-11-28T07:19:44.740Z,36.25
2022-11-28T07:26:10.181Z,36.09
2022-11-28T07:32:34.601Z,36.11
2022-11-28T07:38:59.048Z,35.65
2022-11-28T07:45:33.003Z,35.57
2022-11-28T07:52:07.920Z,35.93
2022-11-28T07:58:32.332Z,35.80
2022-11-28T08:04:56.806Z,35.58
2022-11-28T08:11:21.297Z,35.55
2022-11-28T08:17:45.619Z,35.31
2022-11-28T08:24:09.989Z,35.42
2022-11-28T08:30:34.457Z,35.46
2022-11-28T08:36:58.876Z,35.54
2022-11-28T08:43:23.286Z,35.85
2022-11-28T08:49:47.724Z,36.13
2022-11-28T08:56:12.168Z,36.19
2022-11-28T09:02:36.617Z,36.33
2022-11-28T09:09:01.065Z,36.43
2022-11-28T09:15:25.380Z,36.55
2022-11-28T09:21:54.571Z,36.39
2022-11-28T09:28:21.875Z,36.25
2022-11-28T09:34:46.232Z,35.88
2022-11-28T09:41:16.804Z,35.96
2022-11-28T09:47:41.194Z,35.95
2022-11-28T09:54:17.303Z,35.60
2022-11-28T10:00:41.683Z,35.63
2022-11-28T10:07:06.085Z,35.37
2022-11-28T10:14:07.326Z,35.47
2022-11-28T10:20:41.512Z,35.17
2022-11-28T10:27:06.118Z,35.40
2022-11-28T10:33:30.558Z,35.37
2022-11-28T10:39:54.955Z,35.10
2022-11-28T10:46:17.541Z,35.24
2022-11-28T10:52:47.893Z,35.11
2022-11-28T10:59:15.360Z,35.24
2022-11-28T11:05:39.683Z,35.26
2022-11-28T11:12:06.661Z,35.29
2022-11-28T11:18:33.935Z,35.31
2022-11-28T11:25:13.447Z,35.20
2022-11-28T11:31:42.906Z,35.26
2022-11-28T11:38:19.444Z,35.16
2022-11-28T11:44:55.638Z,35.21
2022-11-28T11:51:19.930Z,34.99
2022-11-28T11:57:44.269Z,34.81
2022-11-28T12:04:52.517Z,34.90
2022-11-28T12:11:17.022Z,34.50
2022-11-28T12:17:58.802Z,34.19
2022-11-28T12:24:32.342Z,34.17
2022-11-28T12:31:02.461Z,34.16
2022-11-28T12:37:33.079Z,33.88
2022-11-28T12:44:27.767Z,34.04
2022-11-28T12:51:06.129Z,34.06
2022-11-28T12:57:30.757Z,34.12
2022-11-28T13:04:04.061Z,34.02
2022-11-28T13:10:40.747Z,34.39
2022-11-28T13:17:11.221Z,34.76
2022-11-28T13:23:35.867Z,34.81
2022-11-28T13:29:58.505Z,35.19
2022-11-28T13:43:33.710Z,35.36
2022-11-28T13:50:02.257Z,35.39
2022-11-28T13:56:47.997Z,35.49
2022-11-28T14:03:27.443Z,35.14
2022-11-28T14:10:04.103Z,34.21
2022-11-28T14:16:46.907Z,33.98
2022-11-28T14:23:32.911Z,34.12
2022-11-28T14:30:03.109Z,34.21
2022-11-28T14:36:44.620Z,34.23
2022-11-28T14:43:09.037Z,34.32
2022-11-28T14:49:39.588Z,34.52
2022-11-28T14:56:06.797Z,34.55
2022-11-28T15:02:31.266Z,34.41
2022-11-28T15:08:58.953Z,34.49
2022-11-28T15:15:23.281Z,34.32
2022-11-28T15:21:53.433Z,34.22
2022-11-28T15:28:17.854Z,34.06
2022-11-28T15:34:42.466Z,34.15
2022-11-28T15:41:01.255Z,33.97
2022-11-28T15:47:25.635Z,33.98
2022-11-28T15:53:59.193Z,33.96
2022-11-28T16:00:23.495Z,33.97
2022-11-28T16:06:47.912Z,34.08
2022-11-28T16:13:12.253Z,34.16
2022-11-28T16:19:36.015Z,34.08
2022-11-28T16:26:02.894Z,34.16
2022-11-28T16:32:27.309Z,34.12
2022-11-28T16:38:54.222Z,34.18
2022-11-28T16:45:21.441Z,33.95
2022-11-28T16:51:53.977Z,34.14
2022-11-28T16:58:27.459Z,33.98
2022-11-28T17:05:03.683Z,34.12
2022-11-28T17:11:28.118Z,34.48
2022-11-28T17:17:52.495Z,34.79
2022-11-28T17:24:16.938Z,34.81
2022-11-28T17:30:41.424Z,34.72
2022-11-28T17:37:05.807Z,34.68
2022-11-28T17:43:32.391Z,34.44
2022-11-28T17:50:00.367Z,34.50
2022-11-28T17:56:25.210Z,34.32
2022-11-28T18:02:50.171Z,34.20
2022-11-28T18:09:14.662Z,34.22
2022-11-28T18:15:39.046Z,34.14
2022-11-28T18:22:03.479Z,34.12
2022-11-28T18:28:27.793Z,34.28
2022-11-28T18:34:52.224Z,34.67
2022-11-28T18:41:16.593Z,34.97
2022-11-28T18:47:40.925Z,35.10
2022-11-28T18:54:05.227Z,35.02
2022-11-28T19:00:29.652Z,35.15
2022-11-28T19:06:53.983Z,34.94
2022-11-28T19:13:18.366Z,34.86
2022-11-28T19:19:42.942Z,34.68
2022-11-28T19:26:07.754Z,34.52
2022-11-28T19:32:32.020Z,34.36
2022-11-28T19:38:56.419Z,34.23
2022-11-28T19:45:20.851Z,34.28
2022-11-28T19:51:45.230Z,34.65
2022-11-28T19:58:09.589Z,34.85
2022-11-28T20:04:33.955Z,35.24
2022-11-28T20:10:58.267Z,35.29
2022-11-28T20:17:22.618Z,35.21
2022-11-28T20:23:47.005Z,35.07
2022-11-28T20:30:11.313Z,35.07
2022-11-28T20:36:35.709Z,35.09
2022-11-28T20:43:00.281Z,34.96
2022-11-28T20:49:24.655Z,34.84
2022-11-28T20:55:49.069Z,34.82
2022-11-28T21:02:16.431Z,34.74
2022-11-28T21:08:40.973Z,34.83
2022-11-28T21:15:05.290Z,34.65
2022-11-28T21:21:29.556Z,34.69
2022-11-28T21:27:53.933Z,34.57
2022-11-28T21:34:18.352Z,34.56
2022-11-28T21:40:42.681Z,34.63
2022-11-28T21:47:07.359Z,34.61
2022-11-28T21:53:31.643Z,34.57
2022-11-28T21:59:55.965Z,34.55
2022-11-28T22:06:02.812Z,34.51
2022-11-28T22:12:27.616Z,34.52
2022-11-28T22:18:51.908Z,34.62
2022-11-28T22:25:16.336Z,34.54
2022-11-28T22:31:40.492Z,34.69
2022-11-28T22:38:04.843Z,34.55
2022-11-28T22:44:29.253Z,34.74
2022-11-28T22:50:53.672Z,34.70
2022-11-28T22:57:17.982Z,34.74
2022-11-28T23:03:42.272Z,34.88
2022-11-28T23:10:06.725Z,34.98
2022-11-28T23:16:31.030Z,34.97
2022-11-28T23:22:48.494Z,35.14
2022-11-28T23:29:12.903Z,35.12
2022-11-28T23:35:37.313Z,35.02
2022-11-28T23:42:01.708Z,35.16
2022-11-28T23:48:25.988Z,35.26
2022-11-28T23:54:50.412Z,35.38
